CheckWX is a tool to help pilots better visualize weather data.  It is not intended as a substitute for an official pre-flight weather briefing.

06:31:04 UTC

KPEA METAR
Pella Municipal Airport
Pella, Iowa, USA
Current

16 mins ago

KPEA 190615Z AUTO 14004KT 10SM CLR 23/19 A3000 RMK AO2 T02250193
Observed
Sep-19 @ 06:15 UTC
Wind
  • 140° at 4 KTS
Visibility
10 SM
Flight Rules
VFR
Cloud Levels
  • Clear skies
Temperature
23°C / 73°F
Dewpoint
19°C / 66°F
Humidity
78%
Altimeter
30" Hg
Pressure
1015.92 hPa
Previous

36 mins ago

KPEA 190555Z AUTO 14004KT 10SM CLR 23/19 A3000 RMK AO2 60001 T02290193 10255 20225
Observed
Sep-19 @ 05:55 UTC
Wind
  • 140° at 4 KTS
Visibility
10 SM
Flight Rules
VFR
Cloud Levels
  • Clear skies
Temperature
23°C / 73°F
Dewpoint
19°C / 66°F
Humidity
78%
Altimeter
30" Hg
Pressure
1015.92 hPa
Previous

56 mins ago

KPEA 190535Z AUTO 15006KT 10SM CLR 23/19 A2999 RMK AO2 T02300192
Observed
Sep-19 @ 05:35 UTC
Wind
  • 150° at 6 KTS
Visibility
10 SM
Flight Rules
VFR
Cloud Levels
  • Clear skies
Temperature
23°C / 73°F
Dewpoint
19°C / 66°F
Humidity
78%
Altimeter
29.99" Hg
Pressure
1015.62 hPa